Time;durP1;ratioP1;P1;durP2;ratioP2;P2;SDS_P1;SDS_P2;PMS_P1;PMS_P2;Temp;Humidity;BMP_temperature;BMP_pressure;BME280_temperature;BME280_humidity;BME280_pressure;Samples;Min_cycle;Max_cycle;Signal;HPM_P1;HPM_P2
2024/02/18 00:00:47;;;;;;;2.20;0.90;;;1.40;97.30;;;;;;5052883;28;20036;-68
2024/02/18 00:03:12;;;;;;;0.95;0.75;;;1.40;97.30;;;;;;5055914;28;20114;-68
2024/02/18 00:05:38;;;;;;;2.42;1.05;;;1.40;97.30;;;;;;5051229;28;20037;-67
2024/02/18 00:08:04;;;;;;;2.50;0.77;;;1.40;97.40;;;;;;5051799;28;20200;-67
2024/02/18 00:10:29;;;;;;;3.22;1.10;;;1.40;97.40;;;;;;5051936;28;20398;-67
2024/02/18 00:12:55;;;;;;;1.63;1.08;;;1.40;97.50;;;;;;5053174;28;20215;-67
2024/02/18 00:15:20;;;;;;;1.55;0.98;;;1.30;97.50;;;;;;5043837;28;20080;-67
2024/02/18 00:17:46;;;;;;;2.47;1.45;;;1.40;97.60;;;;;;5047923;28;20058;-67
2024/02/18 00:20:11;;;;;;;1.65;0.88;;;1.30;97.60;;;;;;5049136;28;20024;-67
2024/02/18 00:22:37;;;;;;;4.18;0.90;;;1.40;97.70;;;;;;5056208;28;20031;-68
2024/02/18 00:25:06;;;;;;;4.00;1.10;;;1.50;97.70;;;;;;5044187;28;20690;-68
2024/02/18 00:27:32;;;;;;;4.28;0.98;;;1.50;97.70;;;;;;5044724;28;20091;-67
2024/02/18 00:29:57;;;;;;;2.55;1.10;;;1.60;97.60;;;;;;5047837;28;20431;-68
2024/02/18 00:32:23;;;;;;;3.10;1.10;;;1.60;97.60;;;;;;5052598;28;20375;-67
2024/02/18 00:34:48;;;;;;;3.75;1.30;;;1.60;97.40;;;;;;5048274;28;20052;-68
2024/02/18 00:37:13;;;;;;;3.03;0.95;;;1.70;97.40;;;;;;5049892;28;20037;-67
2024/02/18 00:39:39;;;;;;;3.03;1.25;;;1.70;97.30;;;;;;5026069;28;20364;-68
2024/02/18 00:42:06;;;;;;;2.25;1.35;;;1.70;97.20;;;;;;5047884;28;20041;-67
2024/02/18 00:44:31;;;;;;;4.75;1.63;;;1.80;97.20;;;;;;5045444;28;20075;-68
2024/02/18 00:46:57;;;;;;;2.65;1.05;;;1.70;97.00;;;;;;5049525;28;20036;-67
2024/02/18 00:49:22;;;;;;;1.08;0.88;;;1.70;97.10;;;;;;5048629;28;20056;-68
2024/02/18 00:51:48;;;;;;;0.73;0.65;;;1.70;97.00;;;;;;5047304;28;20459;-68
2024/02/18 00:54:13;;;;;;;1.30;0.80;;;1.70;97.20;;;;;;5051323;28;20051;-67
2024/02/18 00:56:39;;;;;;;1.48;1.00;;;1.70;97.20;;;;;;5044757;28;20078;-68
2024/02/18 00:59:04;;;;;;;4.47;1.17;;;1.60;97.00;;;;;;5046110;28;20037;-67
2024/02/18 01:01:30;;;;;;;2.22;1.20;;;1.70;97.30;;;;;;5045987;28;20029;-68
2024/02/18 01:03:55;;;;;;;1.90;1.00;;;1.70;97.10;;;;;;5053698;28;20427;-67
2024/02/18 01:06:21;;;;;;;2.50;1.10;;;1.60;97.10;;;;;;5044414;28;20055;-68
2024/02/18 01:08:46;;;;;;;2.22;1.10;;;1.70;97.20;;;;;;5050627;28;20053;-67
2024/02/18 01:11:12;;;;;;;2.13;0.95;;;1.70;97.10;;;;;;5046186;28;20520;-67
2024/02/18 01:13:37;;;;;;;4.03;1.30;;;1.70;97.20;;;;;;5050165;28;20348;-68
2024/02/18 01:16:03;;;;;;;3.75;1.40;;;1.70;97.30;;;;;;5046640;28;20055;-68
2024/02/18 01:18:29;;;;;;;5.20;1.05;;;1.80;97.30;;;;;;5047440;28;20033;-68
2024/02/18 01:20:54;;;;;;;5.28;1.38;;;1.80;97.20;;;;;;5045884;28;20021;-68
2024/02/18 01:23:19;;;;;;;2.58;1.15;;;1.70;97.20;;;;;;5053387;28;20434;-68
2024/02/18 01:25:45;;;;;;;3.55;0.93;;;1.80;97.10;;;;;;5047991;28;20040;-68
2024/02/18 01:28:10;;;;;;;6.88;1.35;;;1.80;97.20;;;;;;5051826;28;20124;-67
2024/02/18 01:30:36;;;;;;;4.95;1.50;;;1.80;97.10;;;;;;5043275;28;20041;-67
2024/02/18 01:33:01;;;;;;;2.97;1.90;;;1.80;97.20;;;;;;5051654;28;20078;-67
2024/02/18 01:35:28;;;;;;;1.83;1.40;;;1.80;97.20;;;;;;5047445;28;20094;-68
2024/02/18 01:37:53;;;;;;;1.63;1.00;;;1.80;97.20;;;;;;5050190;28;20710;-68
2024/02/18 01:40:19;;;;;;;3.00;1.35;;;1.80;97.10;;;;;;5047694;28;20068;-68
2024/02/18 01:42:44;;;;;;;3.42;1.27;;;1.80;97.20;;;;;;5045504;28;20036;-67
2024/02/18 01:45:11;;;;;;;2.10;1.25;;;1.80;97.20;;;;;;5049954;28;20047;-68
2024/02/18 01:47:40;;;;;;;5.65;1.15;;;1.80;97.20;;;;;;5052717;28;20041;-69
2024/02/18 01:50:08;;;;;;;3.15;1.67;;;1.80;97.40;;;;;;5048556;28;20182;-69
2024/02/18 01:52:35;;;;;;;4.72;1.00;;;1.80;97.30;;;;;;5053961;28;20434;-68
2024/02/18 01:55:02;;;;;;;2.10;1.13;;;1.80;97.40;;;;;;5049030;28;20218;-67
2024/02/18 01:57:29;;;;;;;1.65;1.10;;;1.80;97.40;;;;;;5049686;28;20020;-68
2024/02/18 02:00:00;;;;;;;3.13;1.38;;;1.90;97.50;;;;;;5047153;28;20527;-68
2024/02/18 02:02:25;;;;;;;;;;;1.90;97.40;;;;;;5044297;28;20115;-67
2024/02/18 02:04:51;;;;;;;3.05;1.30;;;1.80;97.40;;;;;;5041970;28;19909;-68
2024/02/18 02:07:18;;;;;;;4.07;1.30;;;1.90;97.40;;;;;;5050365;28;20463;-68
2024/02/18 02:09:45;;;;;;;1.35;0.88;;;1.90;97.30;;;;;;5051161;28;20335;-67
2024/02/18 02:12:11;;;;;;;2.72;1.50;;;1.90;97.40;;;;;;5043006;28;20029;-68
2024/02/18 02:14:36;;;;;;;1.52;1.02;;;1.90;97.30;;;;;;5045716;28;20605;-67
2024/02/18 02:17:02;;;;;;;4.47;1.33;;;1.90;97.40;;;;;;5051936;28;20139;-67
2024/02/18 02:19:27;;;;;;;3.35;1.60;;;2.00;97.30;;;;;;5049507;28;20031;-67
2024/02/18 02:21:53;;;;;;;3.13;1.35;;;1.90;97.40;;;;;;5051673;28;20059;-68
2024/02/18 02:24:18;;;;;;;1.92;1.13;;;2.00;97.50;;;;;;5055028;28;20360;-69
2024/02/18 02:26:48;;;;;;;2.75;1.50;;;2.00;97.30;;;;;;5044700;28;20033;-68
2024/02/18 02:29:16;;;;;;;2.88;1.38;;;2.00;97.30;;;;;;5047318;28;20525;-68
2024/02/18 02:31:44;;;;;;;1.90;1.30;;;2.00;97.30;;;;;;5051377;28;20070;-68
2024/02/18 02:34:13;;;;;;;2.60;1.15;;;2.10;97.40;;;;;;5046296;28;20104;-68
2024/02/18 02:36:39;;;;;;;1.85;1.35;;;2.10;97.30;;;;;;5049832;28;20073;-68
2024/02/18 02:39:04;;;;;;;3.95;1.48;;;2.10;97.30;;;;;;5045460;28;20155;-67
2024/02/18 02:41:30;;;;;;;2.05;1.30;;;2.10;97.30;;;;;;5045123;28;20452;-68
2024/02/18 02:43:56;;;;;;;2.72;1.95;;;2.10;97.30;;;;;;5047654;28;20048;-67
2024/02/18 02:46:21;;;;;;;2.75;1.58;;;2.10;97.40;;;;;;5047696;28;20033;-67
2024/02/18 02:48:47;;;;;;;4.88;1.00;;;2.10;97.40;;;;;;5047589;28;20041;-67
2024/02/18 02:51:16;;;;;;;3.10;1.25;;;2.10;97.50;;;;;;5043890;28;20130;-67
2024/02/18 02:53:41;;;;;;;2.65;1.40;;;2.10;97.50;;;;;;5046253;28;20102;-68
2024/02/18 02:56:07;;;;;;;3.03;1.40;;;2.10;97.50;;;;;;5052189;28;20036;-68
2024/02/18 02:58:32;;;;;;;3.30;1.40;;;2.20;97.50;;;;;;5044601;28;20398;-68
2024/02/18 03:00:58;;;;;;;2.42;1.42;;;2.30;97.60;;;;;;5043970;28;20111;-68
2024/02/18 03:03:24;;;;;;;2.08;1.42;;;2.40;97.50;;;;;;5044464;28;20082;-68
2024/02/18 03:05:49;;;;;;;3.38;1.63;;;2.50;97.50;;;;;;5045630;28;20051;-68
2024/02/18 03:08:15;;;;;;;4.28;1.60;;;2.60;97.40;;;;;;5048459;28;20083;-68
2024/02/18 03:10:41;;;;;;;3.67;1.70;;;2.60;97.40;;;;;;5047434;28;20494;-70
2024/02/18 03:13:07;;;;;;;3.72;1.95;;;2.70;97.30;;;;;;5037083;28;20032;-67
2024/02/18 03:15:32;;;;;;;2.60;1.92;;;2.80;97.20;;;;;;5049763;28;20053;-68
2024/02/18 03:17:58;;;;;;;4.75;2.05;;;2.90;97.20;;;;;;5046988;28;20317;-68
2024/02/18 03:20:23;;;;;;;2.83;1.55;;;2.90;97.20;;;;;;5046318;28;20094;-67
2024/02/18 03:22:50;;;;;;;3.58;1.77;;;3.00;97.10;;;;;;5042933;28;20052;-68
2024/02/18 03:25:16;;;;;;;4.07;2.05;;;3.10;97.10;;;;;;5051144;28;20131;-67
2024/02/18 03:27:42;;;;;;;2.92;1.60;;;3.20;97.10;;;;;;5043870;28;20051;-67
2024/02/18 03:30:08;;;;;;;4.70;2.25;;;3.20;97.10;;;;;;5051318;28;20029;-69
2024/02/18 03:32:35;;;;;;;4.57;2.03;;;3.30;97.20;;;;;;5053800;28;20069;-67
2024/02/18 03:35:03;;;;;;;4.53;2.00;;;3.40;97.20;;;;;;5048292;28;20042;-68
2024/02/18 03:37:28;;;;;;;3.58;2.17;;;3.40;97.20;;;;;;5054922;28;20076;-68
2024/02/18 03:39:54;;;;;;;4.50;2.30;;;3.50;97.20;;;;;;5051899;28;20040;-68
2024/02/18 03:42:19;;;;;;;4.50;2.20;;;3.50;97.20;;;;;;5030439;28;20028;-67
2024/02/18 03:44:45;;;;;;;5.82;2.40;;;3.50;97.30;;;;;;5052417;28;20486;-68
2024/02/18 03:47:10;;;;;;;5.28;2.67;;;3.50;97.40;;;;;;5053654;28;20033;-67
2024/02/18 03:49:36;;;;;;;6.20;3.10;;;3.50;97.50;;;;;;5052121;28;20037;-68
2024/02/18 03:52:02;;;;;;;4.03;2.03;;;3.60;97.60;;;;;;5047558;28;20428;-68
2024/02/18 03:54:27;;;;;;;5.80;2.85;;;3.60;97.60;;;;;;5051579;28;20040;-68
2024/02/18 03:56:52;;;;;;;6.38;2.70;;;3.60;97.70;;;;;;5049336;28;20033;-68
2024/02/18 03:59:18;;;;;;;5.93;3.00;;;3.60;97.80;;;;;;5047779;28;20032;-69
2024/02/18 04:01:44;;;;;;;6.72;3.28;;;3.70;97.90;;;;;;5047293;28;20094;-68
2024/02/18 04:04:09;;;;;;;5.95;2.65;;;3.70;98.00;;;;;;5049943;28;20037;-68
2024/02/18 04:06:35;;;;;;;8.20;3.50;;;3.80;98.10;;;;;;5048061;28;20060;-68
2024/02/18 04:09:00;;;;;;;8.40;3.40;;;3.80;98.20;;;;;;5052449;28;20048;-68
2024/02/18 04:11:26;;;;;;;8.48;3.50;;;3.90;98.30;;;;;;5052732;28;20075;-68
2024/02/18 04:13:51;;;;;;;8.88;3.20;;;3.90;98.40;;;;;;5050428;28;20131;-67
2024/02/18 04:16:17;;;;;;;10.63;3.88;;;4.00;98.60;;;;;;5046345;28;20152;-69
2024/02/18 04:18:42;;;;;;;9.27;4.03;;;4.00;98.60;;;;;;5055082;28;20473;-68
2024/02/18 04:21:08;;;;;;;9.73;3.75;;;4.10;98.70;;;;;;5048544;28;20037;-68
2024/02/18 04:23:33;;;;;;;8.60;4.55;;;4.10;98.60;;;;;;5053793;28;20113;-68
2024/02/18 04:25:59;;;;;;;11.82;5.13;;;4.10;98.70;;;;;;5052287;28;20040;-69
2024/02/18 04:28:24;;;;;;;9.70;4.40;;;4.20;98.90;;;;;;5055665;28;20140;-68
2024/02/18 04:30:50;;;;;;;9.25;4.60;;;4.20;98.80;;;;;;5051108;28;20055;-69
2024/02/18 04:33:15;;;;;;;10.07;4.85;;;4.20;98.80;;;;;;5049821;28;20029;-68
2024/02/18 04:35:41;;;;;;;9.45;4.65;;;4.20;98.90;;;;;;5046250;28;20033;-69
2024/02/18 04:38:06;;;;;;;11.15;4.88;;;4.30;98.90;;;;;;5053629;28;20454;-68
2024/02/18 04:40:32;;;;;;;11.40;5.10;;;4.30;99.00;;;;;;5052267;28;20054;-68
2024/02/18 04:42:57;;;;;;;9.25;5.22;;;4.40;99.20;;;;;;5048717;28;20036;-70
2024/02/18 04:45:23;;;;;;;10.48;5.28;;;4.40;99.30;;;;;;5051105;28;20146;-69
2024/02/18 04:47:48;;;;;;;13.07;5.25;;;4.40;99.20;;;;;;5054245;28;20056;-69
2024/02/18 04:50:13;;;;;;;10.63;4.82;;;4.50;99.30;;;;;;5027179;28;20182;-68
2024/02/18 04:52:40;;;;;;;13.05;5.40;;;4.50;99.30;;;;;;5046504;28;20517;-68
2024/02/18 04:55:06;;;;;;;11.38;5.72;;;4.60;99.40;;;;;;5053873;28;20041;-70
2024/02/18 04:57:31;;;;;;;16.27;6.70;;;4.60;99.40;;;;;;5043654;28;20052;-68
2024/02/18 04:59:57;;;;;;;12.07;5.55;;;4.70;99.50;;;;;;5043940;28;20037;-69
2024/02/18 05:02:22;;;;;;;13.73;6.03;;;4.70;99.50;;;;;;5043827;28;20025;-68
2024/02/18 05:04:48;;;;;;;13.75;5.55;;;4.70;99.50;;;;;;5047532;28;20036;-69
2024/02/18 05:07:14;;;;;;;14.15;6.05;;;4.70;99.50;;;;;;5044624;28;20458;-69
2024/02/18 05:09:39;;;;;;;14.18;6.63;;;4.80;99.60;;;;;;5049302;28;20113;-68
2024/02/18 05:12:05;;;;;;;10.98;5.50;;;4.80;99.60;;;;;;5042816;28;20069;-69
2024/02/18 05:14:31;;;;;;;16.60;7.18;;;4.90;99.60;;;;;;5045355;28;20085;-67
2024/02/18 05:16:59;;;;;;;13.40;5.32;;;4.90;99.80;;;;;;5047447;28;20057;-67
2024/02/18 05:19:25;;;;;;;18.10;7.10;;;5.00;99.70;;;;;;5047385;28;20482;-67
2024/02/18 05:21:50;;;;;;;14.68;5.68;;;5.10;99.90;;;;;;5047273;28;20222;-67
2024/02/18 05:24:16;;;;;;;14.77;6.28;;;5.00;99.80;;;;;;5046596;28;20112;-67
2024/02/18 05:26:42;;;;;;;15.10;6.05;;;5.10;99.80;;;;;;5053552;28;20166;-67
2024/02/18 05:29:08;;;;;;;13.57;6.63;;;5.10;99.80;;;;;;5045609;28;20091;-65
2024/02/18 05:31:35;;;;;;;18.25;6.90;;;5.20;99.90;;;;;;5047185;28;20089;-65
2024/02/18 05:34:00;;;;;;;15.35;6.22;;;5.20;99.90;;;;;;5045023;28;20412;-65
2024/02/18 05:36:26;;;;;;;14.73;7.75;;;5.20;99.90;;;;;;5045853;28;20041;-65
2024/02/18 05:38:51;;;;;;;12.68;6.68;;;5.20;99.90;;;;;;5042492;28;20113;-65
2024/02/18 05:41:17;;;;;;;14.75;6.50;;;5.30;99.90;;;;;;5044123;28;20037;-66
2024/02/18 05:43:43;;;;;;;16.52;7.38;;;5.30;99.90;;;;;;5046150;28;20036;-65
2024/02/18 05:46:10;;;;;;;19.73;8.07;;;5.30;99.90;;;;;;5054419;28;20095;-66
2024/02/18 05:48:37;;;;;;;19.92;7.63;;;5.30;99.90;;;;;;5050515;28;20044;-67
2024/02/18 05:51:02;;;;;;;15.30;7.32;;;5.30;99.90;;;;;;5046322;28;20041;-66
2024/02/18 05:53:28;;;;;;;14.25;6.78;;;5.30;99.90;;;;;;5048016;28;20032;-66
2024/02/18 05:55:53;;;;;;;19.45;7.68;;;5.30;99.80;;;;;;5047396;28;20039;-66
2024/02/18 05:58:20;;;;;;;15.68;7.30;;;5.40;99.90;;;;;;5045458;28;20141;-66
2024/02/18 06:00:45;;;;;;;12.07;6.38;;;5.40;99.90;;;;;;5048555;28;20104;-66
2024/02/18 06:03:11;;;;;;;15.43;7.55;;;5.40;99.90;;;;;;5047493;28;20119;-66
2024/02/18 06:05:36;;;;;;;18.30;7.25;;;5.40;99.80;;;;;;5046298;28;20376;-68
2024/02/18 06:08:02;;;;;;;12.52;6.05;;;5.40;99.90;;;;;;5050026;28;20582;-66
2024/02/18 06:10:28;;;;;;;18.08;7.18;;;5.50;99.90;;;;;;5047958;28;20029;-67
2024/02/18 06:12:54;;;;;;;17.58;7.45;;;5.50;99.80;;;;;;5047877;28;20465;-66
2024/02/18 06:15:20;;;;;;;13.27;6.93;;;5.50;99.80;;;;;;5045558;28;20103;-69
2024/02/18 06:17:45;;;;;;;15.60;7.10;;;5.50;99.80;;;;;;5046534;28;20056;-66
2024/02/18 06:20:12;;;;;;;15.00;6.97;;;5.60;99.90;;;;;;5043666;28;20234;-67
2024/02/18 06:22:38;;;;;;;15.50;6.65;;;5.60;99.80;;;;;;5047074;28;20100;-66
2024/02/18 06:25:04;;;;;;;18.88;7.47;;;5.60;99.90;;;;;;5043800;28;20033;-66
2024/02/18 06:27:30;;;;;;;15.90;7.38;;;5.60;99.80;;;;;;5046676;28;20036;-66
2024/02/18 06:29:56;;;;;;;15.15;6.97;;;5.70;99.80;;;;;;5045447;28;20077;-67
2024/02/18 06:32:21;;;;;;;16.25;7.22;;;5.70;99.80;;;;;;5045233;28;20084;-67
2024/02/18 06:34:47;;;;;;;13.07;7.47;;;5.70;99.80;;;;;;5040959;28;20121;-67
2024/02/18 06:37:12;;;;;;;14.90;7.03;;;5.70;99.80;;;;;;5048500;28;20029;-66
2024/02/18 06:39:38;;;;;;;15.98;6.13;;;5.70;99.70;;;;;;5043996;28;20479;-67
2024/02/18 06:42:04;;;;;;;16.17;6.38;;;5.70;99.70;;;;;;5045136;28;20442;-66
2024/02/18 06:44:29;;;;;;;16.35;6.82;;;5.80;99.70;;;;;;5043014;28;20048;-67
2024/02/18 06:46:55;;;;;;;17.25;7.80;;;5.80;99.70;;;;;;5043030;28;20486;-68
2024/02/18 06:49:20;;;;;;;13.40;6.78;;;5.90;99.70;;;;;;5044319;28;20045;-66
2024/02/18 06:51:46;;;;;;;14.68;7.88;;;5.90;99.70;;;;;;5047555;28;20135;-66
2024/02/18 06:54:11;;;;;;;17.92;6.70;;;5.90;99.60;;;;;;5046419;28;20083;-66
2024/02/18 06:56:37;;;;;;;14.23;7.10;;;6.00;99.60;;;;;;5041634;28;20095;-67
2024/02/18 06:59:02;;;;;;;13.77;6.68;;;6.10;99.50;;;;;;5046421;28;20021;-66
2024/02/18 07:01:28;;;;;;;15.02;7.85;;;6.10;99.50;;;;;;5043926;28;20108;-67
2024/02/18 07:03:53;;;;;;;12.98;6.88;;;6.00;99.40;;;;;;5041647;28;20102;-66
2024/02/18 07:06:19;;;;;;;15.43;7.22;;;6.10;99.40;;;;;;5043146;28;20041;-67
2024/02/18 07:08:44;;;;;;;14.60;7.25;;;6.20;99.40;;;;;;5037663;28;20052;-66
2024/02/18 07:11:10;;;;;;;14.35;6.38;;;6.20;99.40;;;;;;5041349;28;20510;-67
2024/02/18 07:13:36;;;;;;;15.05;7.15;;;6.30;99.30;;;;;;5044278;28;20112;-66
2024/02/18 07:16:02;;;;;;;15.75;8.10;;;6.40;99.20;;;;;;5042224;28;20051;-66
2024/02/18 07:18:28;;;;;;;15.52;7.50;;;6.30;99.10;;;;;;5043792;28;20102;-66
2024/02/18 07:20:53;;;;;;;19.10;7.63;;;6.40;99.00;;;;;;5041583;28;20056;-68
2024/02/18 07:23:18;;;;;;;12.52;6.10;;;6.50;98.90;;;;;;5046945;28;20041;-67
2024/02/18 07:25:45;;;;;;;16.65;7.63;;;6.50;98.80;;;;;;5046400;28;20360;-67
2024/02/18 07:28:11;;;;;;;11.38;5.90;;;6.50;98.70;;;;;;5049853;28;20096;-67
2024/02/18 07:30:37;;;;;;;12.07;6.38;;;6.50;98.70;;;;;;5042823;28;20036;-67
2024/02/18 07:33:03;;;;;;;16.35;7.07;;;6.50;98.60;;;;;;5055884;28;20032;-66
2024/02/18 07:35:28;;;;;;;12.48;5.57;;;6.60;98.50;;;;;;5041015;28;20040;-67
2024/02/18 07:37:55;;;;;;;15.52;7.07;;;6.60;98.50;;;;;;5051793;28;20061;-66
2024/02/18 07:40:21;;;;;;;14.40;6.70;;;6.70;98.40;;;;;;5053807;28;20423;-67
2024/02/18 07:42:46;;;;;;;13.38;5.78;;;6.70;98.30;;;;;;5052028;28;20113;-67
2024/02/18 07:45:12;;;;;;;12.55;6.80;;;6.60;98.30;;;;;;5055827;28;20362;-67
2024/02/18 07:47:37;;;;;;;15.20;6.63;;;6.70;98.20;;;;;;5051970;28;20506;-67
2024/02/18 07:50:03;;;;;;;16.35;7.00;;;6.70;98.10;;;;;;5056070;28;20024;-67
2024/02/18 07:52:29;;;;;;;13.85;5.97;;;6.70;98.10;;;;;;5047802;28;20485;-66
2024/02/18 07:54:54;;;;;;;13.85;7.10;;;6.70;98.10;;;;;;5052104;28;20036;-68
2024/02/18 07:57:20;;;;;;;11.57;5.13;;;6.70;98.00;;;;;;5044915;28;20439;-68
2024/02/18 07:59:46;;;;;;;14.27;5.85;;;6.80;98.10;;;;;;5052347;28;20051;-67
2024/02/18 08:02:12;;;;;;;15.25;6.38;;;6.70;98.00;;;;;;5039102;28;20052;-67
2024/02/18 08:04:37;;;;;;;10.07;5.28;;;6.80;98.00;;;;;;5030730;28;20192;-67
2024/02/18 08:07:03;;;;;;;12.55;5.88;;;6.80;98.00;;;;;;5026154;28;20101;-67
2024/02/18 08:09:29;;;;;;;13.25;6.65;;;6.80;98.00;;;;;;5043531;28;20482;-66
2024/02/18 08:11:54;;;;;;;14.63;6.20;;;6.80;97.90;;;;;;5043214;28;20041;-66
2024/02/18 08:14:20;;;;;;;14.07;7.05;;;6.80;97.80;;;;;;5040426;28;20160;-67
2024/02/18 08:16:45;;;;;;;12.40;6.28;;;6.90;97.80;;;;;;5026192;28;20054;-67
2024/02/18 08:19:11;;;;;;;10.55;5.60;;;6.90;97.70;;;;;;5046011;28;20431;-67
2024/02/18 08:21:36;;;;;;;13.60;6.60;;;6.90;97.70;;;;;;5043016;28;20048;-67
2024/02/18 08:24:02;;;;;;;11.95;5.78;;;7.00;97.60;;;;;;5044445;28;20052;-67
2024/02/18 08:26:29;;;;;;;13.57;5.43;;;7.00;97.40;;;;;;5044174;28;20423;-66
2024/02/18 08:28:55;;;;;;;11.88;6.30;;;7.10;97.30;;;;;;5045885;28;20102;-66
2024/02/18 08:31:21;;;;;;;11.77;5.85;;;7.10;97.20;;;;;;5049009;28;20025;-66
2024/02/18 08:33:48;;;;;;;12.90;6.05;;;7.20;97.00;;;;;;5051671;28;20045;-67
2024/02/18 08:36:14;;;;;;;11.23;5.80;;;7.20;97.00;;;;;;5050556;28;20055;-67
2024/02/18 08:38:40;;;;;;;13.15;6.45;;;7.30;96.80;;;;;;5044713;28;20036;-67
2024/02/18 08:41:06;;;;;;;12.98;6.18;;;7.30;96.70;;;;;;5047355;28;20583;-67
2024/02/18 08:43:33;;;;;;;12.02;5.68;;;7.30;96.60;;;;;;5046033;28;20064;-67
2024/02/18 08:45:59;;;;;;;12.07;6.07;;;7.30;96.40;;;;;;5052130;28;20658;-66
2024/02/18 08:48:24;;;;;;;12.73;6.03;;;7.30;96.40;;;;;;5046524;28;20063;-67
2024/02/18 08:50:50;;;;;;;12.63;5.50;;;7.40;96.00;;;;;;5049931;28;20036;-66
2024/02/18 08:53:15;;;;;;;13.35;6.65;;;7.40;96.00;;;;;;5059709;28;20188;-67
2024/02/18 08:55:41;;;;;;;15.48;5.75;;;7.40;95.90;;;;;;5048705;28;20431;-67
2024/02/18 08:58:06;;;;;;;10.35;6.03;;;7.50;95.90;;;;;;5041210;28;20037;-67
2024/02/18 09:00:32;;;;;;;10.05;6.05;;;7.50;95.80;;;;;;5045544;28;20025;-67
2024/02/18 09:02:57;;;;;;;14.75;6.75;;;7.50;95.80;;;;;;5045452;28;20069;-67
2024/02/18 09:05:26;;;;;;;9.80;5.32;;;7.60;95.90;;;;;;5043798;28;20438;-67
2024/02/18 09:07:52;;;;;;;9.07;5.15;;;7.60;95.70;;;;;;5042705;28;20140;-68
2024/02/18 09:10:18;;;;;;;10.20;5.20;;;7.60;95.50;;;;;;5045621;28;20025;-67
2024/02/18 09:12:43;;;;;;;10.35;5.30;;;7.60;95.40;;;;;;5042888;28;20036;-66
2024/02/18 09:15:11;;;;;;;9.95;4.65;;;7.60;95.10;;;;;;5037200;28;20159;-67
2024/02/18 09:17:37;;;;;;;10.98;5.20;;;7.70;94.90;;;;;;5024247;28;20127;-67
2024/02/18 09:20:04;;;;;;;9.98;4.22;;;7.70;95.20;;;;;;5040559;28;20032;-68
2024/02/18 09:22:29;;;;;;;10.35;4.93;;;7.80;95.20;;;;;;5025835;28;20128;-66
2024/02/18 09:24:55;;;;;;;9.80;4.97;;;7.80;95.10;;;;;;5046019;28;20483;-67
2024/02/18 09:27:21;;;;;;;10.15;4.82;;;7.80;95.00;;;;;;5043298;28;20056;-67
2024/02/18 09:29:48;;;;;;;8.57;4.05;;;7.80;94.90;;;;;;5045684;28;20045;-67
2024/02/18 09:32:14;;;;;;;9.48;4.95;;;7.80;95.10;;;;;;5045638;28;20369;-66
2024/02/18 09:34:39;;;;;;;9.50;4.53;;;7.80;95.30;;;;;;5043056;28;20036;-68
2024/02/18 09:37:05;;;;;;;10.75;4.78;;;7.80;95.50;;;;;;5040572;28;20033;-67
2024/02/18 09:39:30;;;;;;;11.00;4.68;;;7.80;95.70;;;;;;5041564;28;20041;-66
2024/02/18 09:41:58;;;;;;;9.75;5.30;;;7.80;95.90;;;;;;5041023;28;20045;-68
2024/02/18 09:44:27;;;;;;;10.15;4.80;;;7.80;95.90;;;;;;5041617;28;20450;-69
2024/02/18 09:46:54;;;;;;;8.07;4.30;;;7.80;96.20;;;;;;5039830;28;20262;-68
2024/02/18 09:49:20;;;;;;;8.10;4.40;;;7.80;96.30;;;;;;5044527;28;20040;-68
2024/02/18 09:51:52;;;;;;;9.60;4.22;;;7.70;96.30;;;;;;5044276;28;20032;-68
2024/02/18 09:54:19;;;;;;;11.68;4.90;;;7.70;96.50;;;;;;5044450;28;20048;-69
2024/02/18 09:56:45;;;;;;;8.77;4.63;;;7.80;96.70;;;;;;5042967;28;20047;-67
2024/02/18 09:59:11;;;;;;;8.75;4.75;;;7.70;96.80;;;;;;5044776;28;20350;-68
2024/02/18 10:01:41;;;;;;;8.15;4.13;;;7.70;97.00;;;;;;5046775;28;20041;-70
2024/02/18 10:04:07;;;;;;;8.02;4.40;;;7.70;97.00;;;;;;5038798;28;20035;-69
2024/02/18 10:06:33;;;;;;;8.63;4.00;;;7.70;97.10;;;;;;5038628;28;20025;-68
2024/02/18 10:09:00;;;;;;;8.68;4.10;;;7.70;97.20;;;;;;5040364;28;20112;-68
2024/02/18 10:11:26;;;;;;;8.50;3.75;;;7.80;97.20;;;;;;5045952;28;20377;-68
2024/02/18 10:13:57;;;;;;;9.07;4.43;;;7.80;97.20;;;;;;5047984;28;20044;-68
2024/02/18 10:16:22;;;;;;;7.82;3.67;;;8.00;97.40;;;;;;5046593;28;20056;-68
2024/02/18 10:18:48;;;;;;;7.65;4.50;;;8.10;97.50;;;;;;5045014;28;20037;-69
2024/02/18 10:21:16;;;;;;;7.50;4.45;;;8.10;97.30;;;;;;5046538;28;20239;-69
2024/02/18 10:23:42;;;;;;;9.63;4.95;;;8.20;97.40;;;;;;5046761;28;20102;-69
2024/02/18 10:26:08;;;;;;;8.48;4.15;;;8.20;97.40;;;;;;5047355;28;20060;-68
2024/02/18 10:28:37;;;;;;;6.32;3.63;;;8.30;97.00;;;;;;5043143;28;20336;-68
2024/02/18 10:31:07;;;;;;;8.02;4.07;;;8.30;97.00;;;;;;5041507;28;20064;-69
2024/02/18 10:33:36;;;;;;;9.15;4.63;;;8.30;97.00;;;;;;5026488;28;20033;-68
2024/02/18 10:36:11;;;;;;;8.00;3.72;;;8.30;97.00;;;;;;5049034;28;20079;-69
2024/02/18 10:38:46;;;;;;;8.43;4.25;;;8.30;97.10;;;;;;5041057;28;20073;-69
2024/02/18 10:41:20;;;;;;;8.88;3.50;;;8.40;97.10;;;;;;5041733;28;20029;-69
2024/02/18 10:43:49;;;;;;;8.07;3.75;;;8.40;96.50;;;;;;5046451;28;20044;-68
2024/02/18 10:46:20;;;;;;;7.63;3.63;;;8.40;96.70;;;;;;5049485;28;20103;-68
2024/02/18 10:48:52;;;;;;;9.38;3.60;;;8.50;96.80;;;;;;5038619;28;20037;-68
2024/02/18 10:51:23;;;;;;;6.60;3.10;;;8.50;96.60;;;;;;5038179;28;20029;-68
2024/02/18 10:54:17;;;;;;;9.10;4.03;;;8.50;96.40;;;;;;5044156;28;20060;-68
2024/02/18 10:56:42;;;;;;;7.95;3.60;;;8.50;96.00;;;;;;5026576;28;20048;-69
2024/02/18 10:59:29;;;;;;;7.65;3.72;;;8.50;96.10;;;;;;5040096;28;20021;-68
2024/02/18 11:02:10;;;;;;;8.25;3.60;;;8.50;96.10;;;;;;5047489;28;20051;-69
2024/02/18 11:04:38;;;;;;;5.63;2.95;;;8.60;96.20;;;;;;5044923;28;20032;-67
2024/02/18 11:07:05;;;;;;;7.60;3.55;;;8.60;96.30;;;;;;5042622;28;20234;-68
2024/02/18 11:09:31;;;;;;;7.75;3.50;;;8.60;95.90;;;;;;5042586;28;20428;-68
2024/02/18 11:12:00;;;;;;;7.55;3.13;;;8.60;96.00;;;;;;5045590;28;20473;-69
2024/02/18 11:14:26;;;;;;;6.82;3.30;;;8.60;96.00;;;;;;5038416;28;20051;-68
2024/02/18 11:16:52;;;;;;;8.25;4.10;;;8.60;95.80;;;;;;5040694;28;22222;-70
2024/02/18 11:19:19;;;;;;;7.10;3.90;;;8.60;95.90;;;;;;5042528;28;20115;-69
2024/02/18 11:21:47;;;;;;;8.52;3.70;;;8.50;95.90;;;;;;5037269;28;20055;-69
2024/02/18 11:24:13;;;;;;;7.85;3.22;;;8.50;96.10;;;;;;5043482;28;20379;-69
2024/02/18 11:26:39;;;;;;;7.22;3.38;;;8.50;96.30;;;;;;5043461;28;20164;-68
2024/02/18 11:29:05;;;;;;;6.63;3.15;;;8.50;96.50;;;;;;5041149;28;20457;-68
2024/02/18 11:31:30;;;;;;;9.13;3.45;;;8.50;96.40;;;;;;5043586;28;20493;-69
2024/02/18 11:33:57;;;;;;;7.88;3.40;;;8.50;96.60;;;;;;5042233;28;20671;-68
2024/02/18 11:36:24;;;;;;;5.45;2.80;;;8.50;96.80;;;;;;5036616;28;20448;-68
2024/02/18 11:38:52;;;;;;;6.72;3.03;;;8.40;96.90;;;;;;5043882;28;20036;-68
2024/02/18 11:41:29;;;;;;;6.35;3.28;;;8.40;96.90;;;;;;5039213;28;20097;-69
2024/02/18 11:43:57;;;;;;;5.63;2.60;;;8.40;97.20;;;;;;5041791;28;20065;-68
2024/02/18 11:46:25;;;;;;;7.57;3.03;;;8.40;97.40;;;;;;5046021;28;20169;-69
2024/02/18 11:48:54;;;;;;;7.32;3.22;;;8.40;97.50;;;;;;5043657;28;20068;-68
2024/02/18 11:51:20;;;;;;;7.30;3.65;;;8.40;97.70;;;;;;5044480;28;20091;-68
2024/02/18 11:53:46;;;;;;;8.73;3.92;;;8.30;97.90;;;;;;5048047;28;20107;-68
2024/02/18 11:56:13;;;;;;;7.47;3.42;;;8.40;98.10;;;;;;5046365;28;20044;-66
2024/02/18 11:58:39;;;;;;;6.78;3.08;;;8.30;98.20;;;;;;5040934;28;20059;-68
2024/02/18 12:01:06;;;;;;;6.40;3.30;;;8.30;98.30;;;;;;5043354;28;20074;-69
2024/02/18 12:03:32;;;;;;;5.75;2.75;;;8.30;98.40;;;;;;5040596;28;20494;-68
2024/02/18 12:06:02;;;;;;;7.97;3.20;;;8.40;98.60;;;;;;5047991;28;20081;-68
2024/02/18 12:08:29;;;;;;;6.60;3.47;;;8.30;98.60;;;;;;5038218;28;20056;-68
2024/02/18 12:10:54;;;;;;;6.70;3.10;;;8.30;98.70;;;;;;5044867;28;20041;-69
2024/02/18 12:13:23;;;;;;;5.15;2.50;;;8.30;98.80;;;;;;5046412;28;20094;-68
2024/02/18 12:15:49;;;;;;;6.47;3.05;;;8.30;98.80;;;;;;5046385;28;20412;-68
2024/02/18 12:18:16;;;;;;;5.88;3.35;;;8.30;98.90;;;;;;5044839;28;20108;-68
2024/02/18 12:20:47;;;;;;;6.72;3.58;;;8.30;98.90;;;;;;5045929;28;20033;-69
2024/02/18 12:23:16;;;;;;;7.10;3.40;;;8.30;99.00;;;;;;5045385;28;20100;-68
2024/02/18 12:25:42;;;;;;;6.90;3.20;;;8.20;98.90;;;;;;5054308;28;20111;-68
2024/02/18 12:28:11;;;;;;;5.55;2.75;;;8.20;99.00;;;;;;5041930;28;20207;-69
2024/02/18 12:30:37;;;;;;;5.80;2.88;;;8.20;99.10;;;;;;5047905;28;20036;-68
2024/02/18 12:33:04;;;;;;;6.00;3.08;;;8.20;99.10;;;;;;5053911;28;20068;-69
2024/02/18 12:35:30;;;;;;;6.35;3.58;;;8.30;99.20;;;;;;5044582;28;20021;-68
2024/02/18 12:37:56;;;;;;;5.78;3.20;;;8.20;99.30;;;;;;5044140;28;20083;-68
2024/02/18 12:40:23;;;;;;;8.68;3.53;;;8.20;99.40;;;;;;5044976;28;20101;-67
2024/02/18 12:42:48;;;;;;;6.55;3.13;;;8.10;99.40;;;;;;5043660;28;20052;-68
2024/02/18 12:45:21;;;;;;;7.90;3.63;;;8.10;99.50;;;;;;5049443;28;20033;-68
2024/02/18 12:47:48;;;;;;;5.40;2.90;;;8.10;99.50;;;;;;5045980;28;20113;-69